TCMO2: Little River Nr Tecumseh, OK

Data processed at Wed May 22 2019 23:50


All information presented herein is the property of the government of the United States of America and may be revised or deleted at any time without prior notice.
Dissemination of this information without the expressed written consent of the Public Affairs Office, Tulsa District U.S. Army Corps of Engineers is strictly prohibited.
These data are gathered electronically and, as presented, have not undergone any form of quality control. These data are not guaranteed to be valid or correct.
Go to home page.
Go to station list.
Go to home page.

Upstream stations:

Downstream station:
Previous Day
Next Day
Current Day
    
SHEF ID:       TCMO2     Little River near Tecumseh, OK
STATION TYPE:  
Regulating: Stage =    11.00, Flow =     2125

                STAGE  RIV-FLOW  BAT-LOAD
                   ft       cfs      volt
              Ccp-Rev   Ccp-Rev   Ccp-Rev
(US/Central)
05/22 00:00      7.03       491     12.65
05/22 01:00      6.90       453     12.57
05/22 02:00      6.79       423     12.57
05/22 03:00      6.73       406     12.57
05/22 04:00      6.68       393     12.57
05/22 05:00      6.64       382     12.49
05/22 06:00      6.60       372     12.49
05/22 07:00      6.55       359     12.49
05/22 08:00      6.50       346     12.57
05/22 09:00      6.45       333     12.65
05/22 10:00      6.38       316     12.73
05/22 11:00      6.31       299     12.89
05/22 12:00      6.25       285     13.05
05/22 13:00      6.20       273     13.05
05/22 14:00      6.14       259     13.05
05/22 15:00      6.08       246     13.05
05/22 16:00      6.03       235     13.05
05/22 17:00      6.00       228     13.05
05/22 18:00      5.96       220     13.05
05/22 19:00      5.93       214     12.97
05/22 20:00      5.90       208     12.81
05/22 21:00      5.85       198     12.73
05/22 22:00      5.81       190     12.73
05/22 23:00      5.79       186     12.65